sensor_id;sensor_type;location;lat;lon;timestamp;P1;durP1;ratioP1;P2;durP2;ratioP2
64653;SDS011;51065;48.884;12.598;2023-04-15T00:01:59;10.18;;;4.53;;
64653;SDS011;51065;48.884;12.598;2023-04-15T00:04:24;9.88;;;4.50;;
64653;SDS011;51065;48.884;12.598;2023-04-15T00:06:50;9.68;;;4.20;;
64653;SDS011;51065;48.884;12.598;2023-04-15T00:09:17;7.15;;;3.72;;
64653;SDS011;51065;48.884;12.598;2023-04-15T00:11:43;8.38;;;3.90;;
64653;SDS011;51065;48.884;12.598;2023-04-15T00:14:10;11.02;;;4.68;;
64653;SDS011;51065;48.884;12.598;2023-04-15T00:16:36;8.98;;;3.95;;
64653;SDS011;51065;48.884;12.598;2023-04-15T00:19:02;7.72;;;3.55;;
64653;SDS011;51065;48.884;12.598;2023-04-15T00:21:27;9.68;;;4.15;;
64653;SDS011;51065;48.884;12.598;2023-04-15T00:23:53;10.38;;;4.25;;
64653;SDS011;51065;48.884;12.598;2023-04-15T00:26:19;9.43;;;3.97;;
64653;SDS011;51065;48.884;12.598;2023-04-15T00:28:45;8.32;;;4.13;;
64653;SDS011;51065;48.884;12.598;2023-04-15T00:31:10;11.38;;;4.70;;
64653;SDS011;51065;48.884;12.598;2023-04-15T00:33:36;11.80;;;4.72;;
64653;SDS011;51065;48.884;12.598;2023-04-15T00:36:02;8.13;;;4.03;;
64653;SDS011;51065;48.884;12.598;2023-04-15T00:38:28;10.60;;;4.70;;
64653;SDS011;51065;48.884;12.598;2023-04-15T00:40:54;10.25;;;4.43;;
64653;SDS011;51065;48.884;12.598;2023-04-15T00:43:26;11.38;;;4.57;;
64653;SDS011;51065;48.884;12.598;2023-04-15T00:46:10;10.57;;;4.43;;
64653;SDS011;51065;48.884;12.598;2023-04-15T00:48:38;10.93;;;4.70;;
64653;SDS011;51065;48.884;12.598;2023-04-15T00:51:04;9.68;;;4.47;;
64653;SDS011;51065;48.884;12.598;2023-04-15T00:53:31;8.90;;;4.15;;
64653;SDS011;51065;48.884;12.598;2023-04-15T00:55:57;8.30;;;4.15;;
64653;SDS011;51065;48.884;12.598;2023-04-15T00:58:22;10.48;;;4.70;;
64653;SDS011;51065;48.884;12.598;2023-04-15T01:00:48;9.80;;;4.43;;
64653;SDS011;51065;48.884;12.598;2023-04-15T01:03:18;9.57;;;4.32;;
64653;SDS011;51065;48.884;12.598;2023-04-15T01:05:44;9.98;;;4.85;;
64653;SDS011;51065;48.884;12.598;2023-04-15T01:08:10;11.05;;;4.60;;
64653;SDS011;51065;48.884;12.598;2023-04-15T01:10:36;11.07;;;4.68;;
64653;SDS011;51065;48.884;12.598;2023-04-15T01:13:02;12.50;;;4.38;;
64653;SDS011;51065;48.884;12.598;2023-04-15T01:15:28;10.45;;;4.40;;
64653;SDS011;51065;48.884;12.598;2023-04-15T01:17:54;10.60;;;4.63;;
64653;SDS011;51065;48.884;12.598;2023-04-15T01:20:22;10.38;;;4.18;;
64653;SDS011;51065;48.884;12.598;2023-04-15T01:22:48;11.73;;;4.85;;
64653;SDS011;51065;48.884;12.598;2023-04-15T01:25:17;9.23;;;4.38;;
64653;SDS011;51065;48.884;12.598;2023-04-15T01:27:44;9.43;;;4.70;;
64653;SDS011;51065;48.884;12.598;2023-04-15T01:30:09;12.57;;;5.05;;
64653;SDS011;51065;48.884;12.598;2023-04-15T01:32:35;11.60;;;4.63;;
64653;SDS011;51065;48.884;12.598;2023-04-15T01:35:01;10.18;;;4.22;;
64653;SDS011;51065;48.884;12.598;2023-04-15T01:37:26;11.05;;;4.47;;
64653;SDS011;51065;48.884;12.598;2023-04-15T01:39:53;11.35;;;4.63;;
64653;SDS011;51065;48.884;12.598;2023-04-15T01:42:20;11.57;;;4.90;;
64653;SDS011;51065;48.884;12.598;2023-04-15T01:44:45;9.02;;;4.50;;
64653;SDS011;51065;48.884;12.598;2023-04-15T01:47:11;11.43;;;4.60;;
64653;SDS011;51065;48.884;12.598;2023-04-15T01:49:37;12.52;;;5.40;;
64653;SDS011;51065;48.884;12.598;2023-04-15T01:52:02;10.77;;;4.28;;
64653;SDS011;51065;48.884;12.598;2023-04-15T01:54:28;9.43;;;3.80;;
64653;SDS011;51065;48.884;12.598;2023-04-15T01:56:53;9.65;;;4.45;;
64653;SDS011;51065;48.884;12.598;2023-04-15T01:59:19;9.13;;;4.30;;
64653;SDS011;51065;48.884;12.598;2023-04-15T02:01:44;7.57;;;3.67;;
64653;SDS011;51065;48.884;12.598;2023-04-15T02:04:10;7.45;;;3.63;;
64653;SDS011;51065;48.884;12.598;2023-04-15T02:09:07;7.82;;;3.45;;
64653;SDS011;51065;48.884;12.598;2023-04-15T02:11:33;8.52;;;3.75;;
64653;SDS011;51065;48.884;12.598;2023-04-15T02:14:01;8.25;;;4.05;;
64653;SDS011;51065;48.884;12.598;2023-04-15T02:16:28;8.75;;;4.03;;
64653;SDS011;51065;48.884;12.598;2023-04-15T02:18:54;9.50;;;4.03;;
64653;SDS011;51065;48.884;12.598;2023-04-15T02:21:20;9.85;;;4.05;;
64653;SDS011;51065;48.884;12.598;2023-04-15T02:23:46;8.98;;;4.13;;
64653;SDS011;51065;48.884;12.598;2023-04-15T02:26:12;9.13;;;3.58;;
64653;SDS011;51065;48.884;12.598;2023-04-15T02:28:38;7.97;;;3.90;;
64653;SDS011;51065;48.884;12.598;2023-04-15T02:31:04;8.85;;;4.25;;
64653;SDS011;51065;48.884;12.598;2023-04-15T02:33:30;11.07;;;4.60;;
64653;SDS011;51065;48.884;12.598;2023-04-15T02:35:56;8.55;;;4.13;;
64653;SDS011;51065;48.884;12.598;2023-04-15T02:38:23;8.20;;;4.03;;
64653;SDS011;51065;48.884;12.598;2023-04-15T02:40:48;7.90;;;4.05;;
64653;SDS011;51065;48.884;12.598;2023-04-15T02:43:15;10.68;;;4.50;;
64653;SDS011;51065;48.884;12.598;2023-04-15T02:45:41;9.27;;;4.65;;
64653;SDS011;51065;48.884;12.598;2023-04-15T02:48:08;10.85;;;4.47;;
64653;SDS011;51065;48.884;12.598;2023-04-15T02:50:33;10.07;;;4.28;;
64653;SDS011;51065;48.884;12.598;2023-04-15T02:53:06;9.85;;;4.57;;
64653;SDS011;51065;48.884;12.598;2023-04-15T02:55:32;10.02;;;4.53;;
64653;SDS011;51065;48.884;12.598;2023-04-15T02:57:58;11.65;;;5.45;;
64653;SDS011;51065;48.884;12.598;2023-04-15T03:00:25;10.90;;;4.70;;
64653;SDS011;51065;48.884;12.598;2023-04-15T03:02:51;11.80;;;4.57;;
64653;SDS011;51065;48.884;12.598;2023-04-15T03:05:22;8.93;;;4.25;;
64653;SDS011;51065;48.884;12.598;2023-04-15T03:07:49;11.13;;;4.68;;
64653;SDS011;51065;48.884;12.598;2023-04-15T03:10:15;11.32;;;4.88;;
64653;SDS011;51065;48.884;12.598;2023-04-15T03:12:41;11.13;;;4.65;;
64653;SDS011;51065;48.884;12.598;2023-04-15T03:15:07;9.15;;;4.20;;
64653;SDS011;51065;48.884;12.598;2023-04-15T03:17:33;9.57;;;4.68;;
64653;SDS011;51065;48.884;12.598;2023-04-15T03:20:00;10.00;;;4.40;;
64653;SDS011;51065;48.884;12.598;2023-04-15T03:22:30;10.25;;;4.40;;
64653;SDS011;51065;48.884;12.598;2023-04-15T03:24:56;10.30;;;4.78;;
64653;SDS011;51065;48.884;12.598;2023-04-15T03:27:22;10.98;;;4.97;;
64653;SDS011;51065;48.884;12.598;2023-04-15T03:29:47;9.88;;;3.97;;
64653;SDS011;51065;48.884;12.598;2023-04-15T03:32:13;9.63;;;4.40;;
64653;SDS011;51065;48.884;12.598;2023-04-15T03:34:39;10.90;;;4.15;;
64653;SDS011;51065;48.884;12.598;2023-04-15T03:37:06;8.95;;;4.57;;
64653;SDS011;51065;48.884;12.598;2023-04-15T03:39:31;10.30;;;4.70;;
64653;SDS011;51065;48.884;12.598;2023-04-15T03:41:57;9.18;;;4.35;;
64653;SDS011;51065;48.884;12.598;2023-04-15T03:44:24;9.80;;;4.50;;
64653;SDS011;51065;48.884;12.598;2023-04-15T03:46:50;8.07;;;3.85;;
64653;SDS011;51065;48.884;12.598;2023-04-15T03:49:16;8.02;;;3.95;;
64653;SDS011;51065;48.884;12.598;2023-04-15T03:51:43;9.65;;;4.40;;
64653;SDS011;51065;48.884;12.598;2023-04-15T03:54:08;10.75;;;4.80;;
64653;SDS011;51065;48.884;12.598;2023-04-15T03:56:34;10.00;;;4.10;;
64653;SDS011;51065;48.884;12.598;2023-04-15T03:59:00;8.52;;;4.03;;
64653;SDS011;51065;48.884;12.598;2023-04-15T04:01:25;8.43;;;4.32;;
64653;SDS011;51065;48.884;12.598;2023-04-15T04:03:51;9.02;;;4.28;;
64653;SDS011;51065;48.884;12.598;2023-04-15T04:06:16;9.50;;;4.47;;
64653;SDS011;51065;48.884;12.598;2023-04-15T04:08:42;9.15;;;4.40;;
64653;SDS011;51065;48.884;12.598;2023-04-15T04:11:08;9.30;;;4.43;;
64653;SDS011;51065;48.884;12.598;2023-04-15T04:13:33;9.63;;;4.35;;
64653;SDS011;51065;48.884;12.598;2023-04-15T04:15:59;10.65;;;4.82;;
64653;SDS011;51065;48.884;12.598;2023-04-15T04:18:24;8.90;;;3.95;;
64653;SDS011;51065;48.884;12.598;2023-04-15T04:20:50;9.80;;;4.55;;
64653;SDS011;51065;48.884;12.598;2023-04-15T04:23:16;10.25;;;4.38;;
64653;SDS011;51065;48.884;12.598;2023-04-15T04:25:41;9.25;;;4.38;;
64653;SDS011;51065;48.884;12.598;2023-04-15T04:28:07;10.73;;;4.75;;
64653;SDS011;51065;48.884;12.598;2023-04-15T04:30:33;9.65;;;4.07;;
64653;SDS011;51065;48.884;12.598;2023-04-15T04:32:59;11.63;;;4.47;;
64653;SDS011;51065;48.884;12.598;2023-04-15T04:35:25;10.10;;;4.68;;
64653;SDS011;51065;48.884;12.598;2023-04-15T04:37:51;9.43;;;4.35;;
64653;SDS011;51065;48.884;12.598;2023-04-15T04:40:17;9.60;;;4.28;;
64653;SDS011;51065;48.884;12.598;2023-04-15T04:42:43;9.93;;;4.20;;
64653;SDS011;51065;48.884;12.598;2023-04-15T04:45:09;11.82;;;4.80;;
64653;SDS011;51065;48.884;12.598;2023-04-15T04:47:35;10.38;;;4.53;;
64653;SDS011;51065;48.884;12.598;2023-04-15T04:50:00;11.27;;;4.45;;
64653;SDS011;51065;48.884;12.598;2023-04-15T04:52:26;11.68;;;4.90;;
64653;SDS011;51065;48.884;12.598;2023-04-15T04:54:51;11.38;;;4.85;;
64653;SDS011;51065;48.884;12.598;2023-04-15T04:57:17;9.70;;;4.70;;
64653;SDS011;51065;48.884;12.598;2023-04-15T04:59:43;10.30;;;4.63;;
64653;SDS011;51065;48.884;12.598;2023-04-15T05:02:08;9.23;;;4.68;;
64653;SDS011;51065;48.884;12.598;2023-04-15T05:04:34;12.68;;;5.60;;
64653;SDS011;51065;48.884;12.598;2023-04-15T05:07:00;12.13;;;5.60;;
64653;SDS011;51065;48.884;12.598;2023-04-15T05:09:26;13.02;;;5.75;;
64653;SDS011;51065;48.884;12.598;2023-04-15T05:11:52;11.00;;;5.65;;
64653;SDS011;51065;48.884;12.598;2023-04-15T05:14:17;10.63;;;4.85;;
64653;SDS011;51065;48.884;12.598;2023-04-15T05:16:43;12.93;;;5.53;;
64653;SDS011;51065;48.884;12.598;2023-04-15T05:19:08;12.77;;;5.50;;
64653;SDS011;51065;48.884;12.598;2023-04-15T05:21:34;11.05;;;4.80;;
64653;SDS011;51065;48.884;12.598;2023-04-15T05:24:00;11.32;;;5.20;;
64653;SDS011;51065;48.884;12.598;2023-04-15T05:26:25;10.82;;;4.90;;
64653;SDS011;51065;48.884;12.598;2023-04-15T05:28:51;12.63;;;5.32;;
64653;SDS011;51065;48.884;12.598;2023-04-15T05:31:17;14.10;;;5.75;;
64653;SDS011;51065;48.884;12.598;2023-04-15T05:33:42;13.32;;;5.10;;
64653;SDS011;51065;48.884;12.598;2023-04-15T05:36:08;13.00;;;5.75;;
64653;SDS011;51065;48.884;12.598;2023-04-15T05:38:34;11.48;;;4.88;;
64653;SDS011;51065;48.884;12.598;2023-04-15T05:40:59;12.68;;;5.47;;
64653;SDS011;51065;48.884;12.598;2023-04-15T05:43:25;14.77;;;5.35;;
64653;SDS011;51065;48.884;12.598;2023-04-15T05:45:51;11.93;;;4.55;;
64653;SDS011;51065;48.884;12.598;2023-04-15T05:48:16;10.30;;;4.47;;
64653;SDS011;51065;48.884;12.598;2023-04-15T05:50:42;9.02;;;4.15;;
64653;SDS011;51065;48.884;12.598;2023-04-15T05:53:07;9.55;;;3.75;;
64653;SDS011;51065;48.884;12.598;2023-04-15T05:55:33;7.80;;;3.20;;
64653;SDS011;51065;48.884;12.598;2023-04-15T05:57:59;6.63;;;2.95;;
64653;SDS011;51065;48.884;12.598;2023-04-15T06:00:24;4.75;;;2.50;;
64653;SDS011;51065;48.884;12.598;2023-04-15T06:02:50;5.75;;;2.47;;
64653;SDS011;51065;48.884;12.598;2023-04-15T06:05:16;5.30;;;2.35;;
64653;SDS011;51065;48.884;12.598;2023-04-15T06:07:42;5.75;;;2.58;;
64653;SDS011;51065;48.884;12.598;2023-04-15T06:10:08;7.47;;;2.92;;
64653;SDS011;51065;48.884;12.598;2023-04-15T06:12:34;6.53;;;3.15;;
64653;SDS011;51065;48.884;12.598;2023-04-15T06:15:00;7.13;;;3.53;;
64653;SDS011;51065;48.884;12.598;2023-04-15T06:17:25;9.00;;;3.15;;
64653;SDS011;51065;48.884;12.598;2023-04-15T06:19:51;8.73;;;3.33;;
64653;SDS011;51065;48.884;12.598;2023-04-15T06:22:20;8.85;;;3.30;;
64653;SDS011;51065;48.884;12.598;2023-04-15T06:24:47;7.07;;;3.50;;
64653;SDS011;51065;48.884;12.598;2023-04-15T06:27:14;8.70;;;3.10;;
64653;SDS011;51065;48.884;12.598;2023-04-15T06:29:40;5.72;;;2.72;;
64653;SDS011;51065;48.884;12.598;2023-04-15T06:32:06;5.35;;;2.90;;
64653;SDS011;51065;48.884;12.598;2023-04-15T06:34:32;6.25;;;3.13;;
64653;SDS011;51065;48.884;12.598;2023-04-15T06:36:58;5.38;;;2.80;;
64653;SDS011;51065;48.884;12.598;2023-04-15T06:39:24;5.95;;;3.03;;
64653;SDS011;51065;48.884;12.598;2023-04-15T06:41:51;7.70;;;3.42;;
64653;SDS011;51065;48.884;12.598;2023-04-15T06:44:16;8.75;;;3.75;;
64653;SDS011;51065;48.884;12.598;2023-04-15T06:46:42;7.50;;;3.38;;
64653;SDS011;51065;48.884;12.598;2023-04-15T06:49:08;8.25;;;3.33;;
64653;SDS011;51065;48.884;12.598;2023-04-15T06:51:35;9.45;;;3.60;;
64653;SDS011;51065;48.884;12.598;2023-04-15T06:54:01;7.88;;;3.50;;
64653;SDS011;51065;48.884;12.598;2023-04-15T06:56:29;6.93;;;3.47;;
64653;SDS011;51065;48.884;12.598;2023-04-15T06:58:55;10.18;;;3.85;;
64653;SDS011;51065;48.884;12.598;2023-04-15T07:01:21;9.90;;;3.80;;
64653;SDS011;51065;48.884;12.598;2023-04-15T07:03:47;7.63;;;3.47;;
64653;SDS011;51065;48.884;12.598;2023-04-15T07:06:12;7.50;;;3.53;;
64653;SDS011;51065;48.884;12.598;2023-04-15T07:08:38;7.63;;;3.40;;
64653;SDS011;51065;48.884;12.598;2023-04-15T07:11:04;7.40;;;3.17;;
64653;SDS011;51065;48.884;12.598;2023-04-15T07:13:30;6.93;;;3.15;;
64653;SDS011;51065;48.884;12.598;2023-04-15T07:15:56;6.90;;;3.55;;
64653;SDS011;51065;48.884;12.598;2023-04-15T07:18:22;7.88;;;3.80;;
64653;SDS011;51065;48.884;12.598;2023-04-15T07:20:47;7.93;;;3.55;;
64653;SDS011;51065;48.884;12.598;2023-04-15T07:23:13;5.90;;;3.13;;
64653;SDS011;51065;48.884;12.598;2023-04-15T07:25:39;7.85;;;3.30;;
64653;SDS011;51065;48.884;12.598;2023-04-15T07:28:04;8.30;;;3.50;;
64653;SDS011;51065;48.884;12.598;2023-04-15T07:30:30;9.23;;;3.88;;
64653;SDS011;51065;48.884;12.598;2023-04-15T07:32:57;9.18;;;3.63;;
64653;SDS011;51065;48.884;12.598;2023-04-15T07:35:22;7.47;;;3.20;;
64653;SDS011;51065;48.884;12.598;2023-04-15T07:37:49;7.13;;;3.22;;
64653;SDS011;51065;48.884;12.598;2023-04-15T07:40:15;7.30;;;3.47;;
64653;SDS011;51065;48.884;12.598;2023-04-15T07:42:40;8.13;;;3.40;;
64653;SDS011;51065;48.884;12.598;2023-04-15T07:45:06;8.18;;;3.47;;
64653;SDS011;51065;48.884;12.598;2023-04-15T07:47:33;6.95;;;3.35;;
64653;SDS011;51065;48.884;12.598;2023-04-15T07:49:58;7.82;;;3.47;;
64653;SDS011;51065;48.884;12.598;2023-04-15T07:52:24;6.50;;;3.13;;
64653;SDS011;51065;48.884;12.598;2023-04-15T07:54:49;5.43;;;2.60;;
64653;SDS011;51065;48.884;12.598;2023-04-15T07:57:15;7.18;;;3.22;;
64653;SDS011;51065;48.884;12.598;2023-04-15T07:59:41;7.25;;;3.28;;
64653;SDS011;51065;48.884;12.598;2023-04-15T08:02:07;9.60;;;3.53;;
64653;SDS011;51065;48.884;12.598;2023-04-15T08:04:32;6.18;;;3.00;;
64653;SDS011;51065;48.884;12.598;2023-04-15T08:06:58;6.38;;;3.00;;
64653;SDS011;51065;48.884;12.598;2023-04-15T08:09:23;9.70;;;3.63;;
64653;SDS011;51065;48.884;12.598;2023-04-15T08:11:50;7.07;;;3.38;;
64653;SDS011;51065;48.884;12.598;2023-04-15T08:14:17;6.10;;;2.60;;
64653;SDS011;51065;48.884;12.598;2023-04-15T08:16:42;6.88;;;3.28;;
64653;SDS011;51065;48.884;12.598;2023-04-15T08:19:09;5.07;;;2.70;;
64653;SDS011;51065;48.884;12.598;2023-04-15T08:21:35;4.88;;;2.70;;
64653;SDS011;51065;48.884;12.598;2023-04-15T08:24:00;4.38;;;2.47;;
64653;SDS011;51065;48.884;12.598;2023-04-15T08:26:27;5.00;;;2.80;;
64653;SDS011;51065;48.884;12.598;2023-04-15T08:28:52;6.00;;;2.50;;
64653;SDS011;51065;48.884;12.598;2023-04-15T08:31:18;3.85;;;2.10;;
64653;SDS011;51065;48.884;12.598;2023-04-15T08:33:44;5.43;;;2.80;;
64653;SDS011;51065;48.884;12.598;2023-04-15T08:36:10;4.13;;;2.25;;
64653;SDS011;51065;48.884;12.598;2023-04-15T08:38:36;7.35;;;2.80;;
64653;SDS011;51065;48.884;12.598;2023-04-15T08:41:11;4.85;;;2.55;;
64653;SDS011;51065;48.884;12.598;2023-04-15T08:46:15;4.63;;;2.42;;
64653;SDS011;51065;48.884;12.598;2023-04-15T08:48:42;3.42;;;1.92;;
64653;SDS011;51065;48.884;12.598;2023-04-15T08:51:08;3.22;;;1.85;;
64653;SDS011;51065;48.884;12.598;2023-04-15T08:53:34;2.75;;;1.65;;
64653;SDS011;51065;48.884;12.598;2023-04-15T08:56:02;2.83;;;1.60;;
64653;SDS011;51065;48.884;12.598;2023-04-15T08:58:31;2.45;;;1.55;;
64653;SDS011;51065;48.884;12.598;2023-04-15T09:00:58;3.42;;;1.35;;
64653;SDS011;51065;48.884;12.598;2023-04-15T09:03:24;2.78;;;1.52;;
64653;SDS011;51065;48.884;12.598;2023-04-15T09:05:50;2.35;;;1.45;;
64653;SDS011;51065;48.884;12.598;2023-04-15T09:08:15;3.38;;;1.42;;
64653;SDS011;51065;48.884;12.598;2023-04-15T09:10:41;3.03;;;1.65;;
64653;SDS011;51065;48.884;12.598;2023-04-15T09:13:07;2.90;;;1.52;;
64653;SDS011;51065;48.884;12.598;2023-04-15T09:15:33;1.85;;;1.40;;
64653;SDS011;51065;48.884;12.598;2023-04-15T09:18:02;2.15;;;1.38;;
64653;SDS011;51065;48.884;12.598;2023-04-15T09:20:28;3.50;;;1.58;;
64653;SDS011;51065;48.884;12.598;2023-04-15T09:22:54;3.55;;;1.60;;
64653;SDS011;51065;48.884;12.598;2023-04-15T09:27:55;2.33;;;1.40;;
64653;SDS011;51065;48.884;12.598;2023-04-15T09:30:28;2.25;;;1.50;;
64653;SDS011;51065;48.884;12.598;2023-04-15T09:32:55;2.03;;;1.23;;
64653;SDS011;51065;48.884;12.598;2023-04-15T09:35:25;1.98;;;1.40;;
64653;SDS011;51065;48.884;12.598;2023-04-15T09:37:51;5.03;;;1.83;;
64653;SDS011;51065;48.884;12.598;2023-04-15T09:40:33;3.00;;;1.88;;
64653;SDS011;51065;48.884;12.598;2023-04-15T09:42:59;2.28;;;1.50;;
64653;SDS011;51065;48.884;12.598;2023-04-15T09:45:29;3.00;;;1.85;;
64653;SDS011;51065;48.884;12.598;2023-04-15T09:47:56;2.55;;;1.60;;
64653;SDS011;51065;48.884;12.598;2023-04-15T09:50:22;2.97;;;1.70;;
64653;SDS011;51065;48.884;12.598;2023-04-15T09:52:52;3.15;;;1.45;;
64653;SDS011;51065;48.884;12.598;2023-04-15T09:55:17;2.55;;;1.15;;
64653;SDS011;51065;48.884;12.598;2023-04-15T09:57:43;1.98;;;1.35;;
64653;SDS011;51065;48.884;12.598;2023-04-15T10:00:11;1.58;;;1.08;;
64653;SDS011;51065;48.884;12.598;2023-04-15T10:02:41;3.13;;;1.23;;
64653;SDS011;51065;48.884;12.598;2023-04-15T10:05:10;1.90;;;1.27;;
64653;SDS011;51065;48.884;12.598;2023-04-15T10:07:38;1.45;;;1.02;;
64653;SDS011;51065;48.884;12.598;2023-04-15T10:10:05;0.82;;;0.80;;
64653;SDS011;51065;48.884;12.598;2023-04-15T10:12:31;2.17;;;1.15;;
64653;SDS011;51065;48.884;12.598;2023-04-15T10:14:58;2.65;;;0.95;;
64653;SDS011;51065;48.884;12.598;2023-04-15T10:17:28;2.00;;;1.00;;
64653;SDS011;51065;48.884;12.598;2023-04-15T10:19:59;1.20;;;0.80;;
64653;SDS011;51065;48.884;12.598;2023-04-15T10:22:26;1.63;;;0.80;;
64653;SDS011;51065;48.884;12.598;2023-04-15T10:24:52;1.85;;;1.20;;
64653;SDS011;51065;48.884;12.598;2023-04-15T10:27:20;3.15;;;1.35;;
64653;SDS011;51065;48.884;12.598;2023-04-15T10:29:46;2.03;;;1.20;;
64653;SDS011;51065;48.884;12.598;2023-04-15T10:32:13;1.05;;;0.80;;
64653;SDS011;51065;48.884;12.598;2023-04-15T10:34:40;2.75;;;1.02;;
64653;SDS011;51065;48.884;12.598;2023-04-15T10:37:08;0.63;;;0.63;;
64653;SDS011;51065;48.884;12.598;2023-04-15T10:42:08;3.25;;;0.85;;
64653;SDS011;51065;48.884;12.598;2023-04-15T10:44:41;3.30;;;0.77;;
64653;SDS011;51065;48.884;12.598;2023-04-15T10:47:18;2.72;;;1.33;;
64653;SDS011;51065;48.884;12.598;2023-04-15T10:49:46;1.50;;;1.00;;
64653;SDS011;51065;48.884;12.598;2023-04-15T10:52:17;1.30;;;0.70;;
64653;SDS011;51065;48.884;12.598;2023-04-15T10:54:48;1.35;;;0.90;;
64653;SDS011;51065;48.884;12.598;2023-04-15T10:57:22;1.33;;;0.90;;
64653;SDS011;51065;48.884;12.598;2023-04-15T11:02:40;1.50;;;0.98;;
64653;SDS011;51065;48.884;12.598;2023-04-15T11:05:10;1.08;;;0.80;;
64653;SDS011;51065;48.884;12.598;2023-04-15T11:12:38;2.92;;;1.13;;
64653;SDS011;51065;48.884;12.598;2023-04-15T11:20:47;0.75;;;0.70;;
64653;SDS011;51065;48.884;12.598;2023-04-15T11:26:10;2.83;;;0.90;;
64653;SDS011;51065;48.884;12.598;2023-04-15T11:28:37;1.17;;;1.08;;
64653;SDS011;51065;48.884;12.598;2023-04-15T11:31:05;1.23;;;0.80;;
64653;SDS011;51065;48.884;12.598;2023-04-15T11:33:57;1.27;;;0.80;;
64653;SDS011;51065;48.884;12.598;2023-04-15T11:36:25;3.17;;;0.80;;
64653;SDS011;51065;48.884;12.598;2023-04-15T11:38:53;1.30;;;1.10;;
64653;SDS011;51065;48.884;12.598;2023-04-15T11:41:19;2.10;;;1.10;;
64653;SDS011;51065;48.884;12.598;2023-04-15T11:43:46;1.45;;;0.93;;
64653;SDS011;51065;48.884;12.598;2023-04-15T11:46:11;1.50;;;0.93;;
64653;SDS011;51065;48.884;12.598;2023-04-15T11:48:40;1.65;;;0.80;;
64653;SDS011;51065;48.884;12.598;2023-04-15T11:51:10;2.25;;;1.00;;
64653;SDS011;51065;48.884;12.598;2023-04-15T11:56:21;1.88;;;1.17;;
64653;SDS011;51065;48.884;12.598;2023-04-15T11:58:51;1.42;;;1.08;;
64653;SDS011;51065;48.884;12.598;2023-04-15T12:01:18;1.90;;;1.25;;
64653;SDS011;51065;48.884;12.598;2023-04-15T12:03:44;3.05;;;1.20;;
64653;SDS011;51065;48.884;12.598;2023-04-15T12:06:21;3.20;;;1.20;;
64653;SDS011;51065;48.884;12.598;2023-04-15T12:09:06;1.90;;;1.10;;
64653;SDS011;51065;48.884;12.598;2023-04-15T12:11:55;1.23;;;1.10;;
64653;SDS011;51065;48.884;12.598;2023-04-15T12:14:31;2.47;;;1.20;;
64653;SDS011;51065;48.884;12.598;2023-04-15T12:16:58;1.98;;;1.35;;
64653;SDS011;51065;48.884;12.598;2023-04-15T12:21:57;2.50;;;1.20;;
64653;SDS011;51065;48.884;12.598;2023-04-15T12:24:24;1.65;;;1.20;;
64653;SDS011;51065;48.884;12.598;2023-04-15T12:26:51;3.60;;;1.50;;
64653;SDS011;51065;48.884;12.598;2023-04-15T12:29:19;1.52;;;1.05;;
64653;SDS011;51065;48.884;12.598;2023-04-15T12:31:49;3.00;;;1.30;;
64653;SDS011;51065;48.884;12.598;2023-04-15T12:34:17;2.17;;;1.50;;
64653;SDS011;51065;48.884;12.598;2023-04-15T12:36:50;1.90;;;1.38;;
64653;SDS011;51065;48.884;12.598;2023-04-15T12:39:15;1.83;;;1.10;;
64653;SDS011;51065;48.884;12.598;2023-04-15T12:41:41;1.42;;;1.10;;
64653;SDS011;51065;48.884;12.598;2023-04-15T12:44:07;2.15;;;1.25;;
64653;SDS011;51065;48.884;12.598;2023-04-15T12:46:33;1.33;;;0.90;;
64653;SDS011;51065;48.884;12.598;2023-04-15T12:48:59;1.27;;;1.13;;
64653;SDS011;51065;48.884;12.598;2023-04-15T12:51:24;2.78;;;1.25;;
64653;SDS011;51065;48.884;12.598;2023-04-15T12:53:51;1.73;;;1.30;;
64653;SDS011;51065;48.884;12.598;2023-04-15T12:56:17;1.90;;;1.30;;
64653;SDS011;51065;48.884;12.598;2023-04-15T12:58:42;3.75;;;1.38;;
64653;SDS011;51065;48.884;12.598;2023-04-15T13:01:08;2.13;;;1.20;;
64653;SDS011;51065;48.884;12.598;2023-04-15T13:03:34;2.75;;;1.55;;
64653;SDS011;51065;48.884;12.598;2023-04-15T13:06:00;4.63;;;1.45;;
64653;SDS011;51065;48.884;12.598;2023-04-15T13:08:26;1.40;;;1.20;;
64653;SDS011;51065;48.884;12.598;2023-04-15T13:10:52;2.22;;;1.20;;
64653;SDS011;51065;48.884;12.598;2023-04-15T13:13:17;2.05;;;1.30;;
64653;SDS011;51065;48.884;12.598;2023-04-15T13:15:43;2.58;;;1.23;;
64653;SDS011;51065;48.884;12.598;2023-04-15T13:18:10;2.78;;;1.52;;
64653;SDS011;51065;48.884;12.598;2023-04-15T13:20:35;4.93;;;1.92;;
64653;SDS011;51065;48.884;12.598;2023-04-15T13:23:01;5.20;;;1.88;;
64653;SDS011;51065;48.884;12.598;2023-04-15T13:25:26;2.20;;;1.23;;
64653;SDS011;51065;48.884;12.598;2023-04-15T13:27:52;2.33;;;1.20;;
64653;SDS011;51065;48.884;12.598;2023-04-15T13:30:18;2.33;;;1.58;;
64653;SDS011;51065;48.884;12.598;2023-04-15T13:32:43;2.75;;;1.65;;
64653;SDS011;51065;48.884;12.598;2023-04-15T13:35:09;2.95;;;1.33;;
64653;SDS011;51065;48.884;12.598;2023-04-15T13:37:35;1.50;;;1.10;;
64653;SDS011;51065;48.884;12.598;2023-04-15T13:40:00;2.00;;;1.40;;
64653;SDS011;51065;48.884;12.598;2023-04-15T13:42:26;2.42;;;1.20;;
64653;SDS011;51065;48.884;12.598;2023-04-15T13:44:52;1.73;;;1.20;;
64653;SDS011;51065;48.884;12.598;2023-04-15T13:47:18;3.55;;;1.52;;
64653;SDS011;51065;48.884;12.598;2023-04-15T13:49:44;2.63;;;1.58;;
64653;SDS011;51065;48.884;12.598;2023-04-15T13:52:10;3.13;;;1.60;;
64653;SDS011;51065;48.884;12.598;2023-04-15T13:54:36;4.03;;;1.77;;
64653;SDS011;51065;48.884;12.598;2023-04-15T13:57:01;2.72;;;1.70;;
64653;SDS011;51065;48.884;12.598;2023-04-15T13:59:27;3.33;;;1.77;;
64653;SDS011;51065;48.884;12.598;2023-04-15T14:01:53;4.65;;;2.15;;
64653;SDS011;51065;48.884;12.598;2023-04-15T14:04:18;2.92;;;1.73;;
64653;SDS011;51065;48.884;12.598;2023-04-15T14:06:44;2.35;;;1.60;;
64653;SDS011;51065;48.884;12.598;2023-04-15T14:09:10;4.53;;;1.67;;
64653;SDS011;51065;48.884;12.598;2023-04-15T14:11:37;3.58;;;1.90;;
64653;SDS011;51065;48.884;12.598;2023-04-15T14:14:03;4.78;;;1.85;;
64653;SDS011;51065;48.884;12.598;2023-04-15T14:16:31;3.03;;;1.55;;
64653;SDS011;51065;48.884;12.598;2023-04-15T14:18:57;4.88;;;1.75;;
64653;SDS011;51065;48.884;12.598;2023-04-15T14:21:23;1.63;;;1.23;;
64653;SDS011;51065;48.884;12.598;2023-04-15T14:23:48;4.10;;;1.90;;
64653;SDS011;51065;48.884;12.598;2023-04-15T14:26:14;4.70;;;2.22;;
64653;SDS011;51065;48.884;12.598;2023-04-15T14:28:39;2.28;;;1.65;;
64653;SDS011;51065;48.884;12.598;2023-04-15T14:31:05;3.10;;;1.92;;
64653;SDS011;51065;48.884;12.598;2023-04-15T14:33:31;3.45;;;1.70;;
64653;SDS011;51065;48.884;12.598;2023-04-15T14:35:56;4.97;;;1.92;;
64653;SDS011;51065;48.884;12.598;2023-04-15T14:38:22;3.65;;;1.70;;
64653;SDS011;51065;48.884;12.598;2023-04-15T14:40:47;3.53;;;1.70;;
64653;SDS011;51065;48.884;12.598;2023-04-15T14:43:13;2.95;;;1.50;;
64653;SDS011;51065;48.884;12.598;2023-04-15T14:45:39;4.68;;;2.00;;
64653;SDS011;51065;48.884;12.598;2023-04-15T14:48:05;2.95;;;1.73;;
64653;SDS011;51065;48.884;12.598;2023-04-15T14:50:37;4.70;;;1.85;;
64653;SDS011;51065;48.884;12.598;2023-04-15T14:53:03;3.40;;;1.73;;
64653;SDS011;51065;48.884;12.598;2023-04-15T14:55:28;5.70;;;1.92;;
64653;SDS011;51065;48.884;12.598;2023-04-15T14:57:54;3.67;;;1.50;;
64653;SDS011;51065;48.884;12.598;2023-04-15T15:00:20;2.58;;;1.77;;